Black River, Minnesota
Current Conditions -  °F | °C
As of 9:55 AM on Saturday 20 Dec 2014 (Local Time) from KINL Reporting Station
Haze Haze  
Wind Chill: 23°   Ceiling: 500
Heat Index: 28°   Visibility: 4mi
Dew Point: 26°   Wind: 5mph
Humidity: 92%   Direction: NA
Pressure: 30.04"   Gusts: NA
Location:  48.5075°N, 93.9033°W
Report Text: KINL 201555Z AUTO VRB04KT 4SM BR OVC005 M02/M03 A3004 RMK AO2 SNE00 SLP194 P0000 T10221033
Loading
Personal Weather Stations






























Interactive Weather Map New forecast layout! Learn more

10-Day Weather Forecast

Advertisements
Track Severe Weather on mobile